sensor_id;sensor_type;location;lat;lon;timestamp;P1;durP1;ratioP1;P2;durP2;ratioP2
63653;SDS011;49809;47.418;19.080;2023-10-13T00:02:17;28.15;;;13.38;;
63653;SDS011;49809;47.418;19.080;2023-10-13T00:05:44;23.12;;;13.77;;
63653;SDS011;49809;47.418;19.080;2023-10-13T00:08:48;21.65;;;13.07;;
63653;SDS011;49809;47.418;19.080;2023-10-13T00:11:52;28.87;;;13.73;;
63653;SDS011;49809;47.418;19.080;2023-10-13T00:14:56;26.73;;;13.98;;
63653;SDS011;49809;47.418;19.080;2023-10-13T00:18:28;25.35;;;13.62;;
63653;SDS011;49809;47.418;19.080;2023-10-13T00:21:46;29.30;;;13.98;;
63653;SDS011;49809;47.418;19.080;2023-10-13T00:25:16;23.38;;;14.10;;
63653;SDS011;49809;47.418;19.080;2023-10-13T00:28:29;27.98;;;13.98;;
63653;SDS011;49809;47.418;19.080;2023-10-13T00:31:39;24.42;;;14.23;;
63653;SDS011;49809;47.418;19.080;2023-10-13T00:34:49;20.40;;;13.32;;
63653;SDS011;49809;47.418;19.080;2023-10-13T00:37:59;22.62;;;13.70;;
63653;SDS011;49809;47.418;19.080;2023-10-13T00:41:07;25.70;;;14.27;;
63653;SDS011;49809;47.418;19.080;2023-10-13T00:44:22;26.15;;;14.87;;
63653;SDS011;49809;47.418;19.080;2023-10-13T00:47:35;27.90;;;13.85;;
63653;SDS011;49809;47.418;19.080;2023-10-13T00:51:03;27.75;;;13.45;;
63653;SDS011;49809;47.418;19.080;2023-10-13T00:54:32;22.23;;;13.20;;
63653;SDS011;49809;47.418;19.080;2023-10-13T01:00:48;23.23;;;13.65;;
63653;SDS011;49809;47.418;19.080;2023-10-13T01:03:59;29.02;;;15.07;;
63653;SDS011;49809;47.418;19.080;2023-10-13T01:07:03;27.70;;;14.00;;
63653;SDS011;49809;47.418;19.080;2023-10-13T01:10:10;26.12;;;14.32;;
63653;SDS011;49809;47.418;19.080;2023-10-13T01:13:37;23.25;;;13.35;;
63653;SDS011;49809;47.418;19.080;2023-10-13T01:16:49;22.00;;;13.60;;
63653;SDS011;49809;47.418;19.080;2023-10-13T01:19:55;24.80;;;13.27;;
63653;SDS011;49809;47.418;19.080;2023-10-13T01:23:09;27.08;;;14.25;;
63653;SDS011;49809;47.418;19.080;2023-10-13T01:26:21;22.85;;;12.70;;
63653;SDS011;49809;47.418;19.080;2023-10-13T01:29:46;23.17;;;13.35;;
63653;SDS011;49809;47.418;19.080;2023-10-13T01:32:52;25.30;;;13.65;;
63653;SDS011;49809;47.418;19.080;2023-10-13T01:35:57;26.35;;;13.30;;
63653;SDS011;49809;47.418;19.080;2023-10-13T01:39:09;21.15;;;12.43;;
63653;SDS011;49809;47.418;19.080;2023-10-13T01:42:13;23.55;;;13.38;;
63653;SDS011;49809;47.418;19.080;2023-10-13T01:45:22;25.02;;;13.80;;
63653;SDS011;49809;47.418;19.080;2023-10-13T01:48:32;26.50;;;13.45;;
63653;SDS011;49809;47.418;19.080;2023-10-13T01:51:37;23.12;;;13.95;;
63653;SDS011;49809;47.418;19.080;2023-10-13T01:54:46;24.70;;;12.77;;
63653;SDS011;49809;47.418;19.080;2023-10-13T01:57:52;20.20;;;12.13;;
63653;SDS011;49809;47.418;19.080;2023-10-13T02:00:57;19.45;;;12.43;;
63653;SDS011;49809;47.418;19.080;2023-10-13T02:04:03;20.30;;;12.52;;
63653;SDS011;49809;47.418;19.080;2023-10-13T02:07:09;22.23;;;14.05;;
63653;SDS011;49809;47.418;19.080;2023-10-13T02:10:18;24.85;;;12.48;;
63653;SDS011;49809;47.418;19.080;2023-10-13T02:13:26;25.40;;;13.40;;
63653;SDS011;49809;47.418;19.080;2023-10-13T02:16:58;26.27;;;13.48;;
63653;SDS011;49809;47.418;19.080;2023-10-13T02:20:16;22.95;;;12.75;;
63653;SDS011;49809;47.418;19.080;2023-10-13T02:23:54;18.85;;;11.68;;
63653;SDS011;49809;47.418;19.080;2023-10-13T02:27:10;25.90;;;13.02;;
63653;SDS011;49809;47.418;19.080;2023-10-13T02:30:20;19.17;;;12.40;;
63653;SDS011;49809;47.418;19.080;2023-10-13T02:33:26;23.67;;;13.35;;
63653;SDS011;49809;47.418;19.080;2023-10-13T02:36:37;24.40;;;13.48;;
63653;SDS011;49809;47.418;19.080;2023-10-13T02:39:53;20.33;;;12.23;;
63653;SDS011;49809;47.418;19.080;2023-10-13T02:43:17;22.77;;;12.13;;
63653;SDS011;49809;47.418;19.080;2023-10-13T02:46:24;21.00;;;12.37;;
63653;SDS011;49809;47.418;19.080;2023-10-13T02:49:52;24.45;;;12.10;;
63653;SDS011;49809;47.418;19.080;2023-10-13T02:52:57;22.87;;;12.40;;
63653;SDS011;49809;47.418;19.080;2023-10-13T02:56:01;24.17;;;13.27;;
63653;SDS011;49809;47.418;19.080;2023-10-13T02:59:09;23.70;;;12.43;;
63653;SDS011;49809;47.418;19.080;2023-10-13T03:02:15;21.17;;;12.88;;
63653;SDS011;49809;47.418;19.080;2023-10-13T03:05:36;23.50;;;12.80;;
63653;SDS011;49809;47.418;19.080;2023-10-13T03:08:42;24.63;;;13.62;;
63653;SDS011;49809;47.418;19.080;2023-10-13T03:11:50;26.37;;;13.00;;
63653;SDS011;49809;47.418;19.080;2023-10-13T03:14:55;28.05;;;14.15;;
63653;SDS011;49809;47.418;19.080;2023-10-13T03:17:59;24.25;;;13.32;;
63653;SDS011;49809;47.418;19.080;2023-10-13T03:21:05;24.42;;;13.32;;
63653;SDS011;49809;47.418;19.080;2023-10-13T03:24:11;25.37;;;13.18;;
63653;SDS011;49809;47.418;19.080;2023-10-13T03:27:17;26.20;;;13.45;;
63653;SDS011;49809;47.418;19.080;2023-10-13T03:30:26;30.67;;;13.73;;
63653;SDS011;49809;47.418;19.080;2023-10-13T03:33:38;22.30;;;13.00;;
63653;SDS011;49809;47.418;19.080;2023-10-13T03:36:47;25.70;;;13.07;;
63653;SDS011;49809;47.418;19.080;2023-10-13T03:40:06;23.23;;;13.35;;
63653;SDS011;49809;47.418;19.080;2023-10-13T03:43:22;24.77;;;13.38;;
63653;SDS011;49809;47.418;19.080;2023-10-13T03:46:48;24.05;;;13.75;;
63653;SDS011;49809;47.418;19.080;2023-10-13T03:49:53;21.85;;;12.77;;
63653;SDS011;49809;47.418;19.080;2023-10-13T03:53:18;23.30;;;13.45;;
63653;SDS011;49809;47.418;19.080;2023-10-13T03:56:22;24.12;;;13.62;;
63653;SDS011;49809;47.418;19.080;2023-10-13T03:59:35;26.73;;;13.25;;
63653;SDS011;49809;47.418;19.080;2023-10-13T04:02:40;22.73;;;14.27;;
63653;SDS011;49809;47.418;19.080;2023-10-13T04:05:49;28.95;;;13.90;;
63653;SDS011;49809;47.418;19.080;2023-10-13T04:12:33;24.70;;;14.02;;
63653;SDS011;49809;47.418;19.080;2023-10-13T04:15:54;26.20;;;14.27;;
63653;SDS011;49809;47.418;19.080;2023-10-13T04:19:27;25.40;;;14.07;;
63653;SDS011;49809;47.418;19.080;2023-10-13T04:25:54;32.58;;;15.10;;
63653;SDS011;49809;47.418;19.080;2023-10-13T04:29:10;27.10;;;14.50;;
63653;SDS011;49809;47.418;19.080;2023-10-13T04:32:30;27.77;;;14.20;;
63653;SDS011;49809;47.418;19.080;2023-10-13T04:35:40;25.55;;;15.20;;
63653;SDS011;49809;47.418;19.080;2023-10-13T04:38:58;32.33;;;15.45;;
63653;SDS011;49809;47.418;19.080;2023-10-13T04:42:08;23.20;;;13.30;;
63653;SDS011;49809;47.418;19.080;2023-10-13T04:45:29;26.33;;;14.20;;
63653;SDS011;49809;47.418;19.080;2023-10-13T04:48:33;28.35;;;14.82;;
63653;SDS011;49809;47.418;19.080;2023-10-13T04:51:45;26.58;;;14.23;;
63653;SDS011;49809;47.418;19.080;2023-10-13T04:55:06;29.77;;;14.23;;
63653;SDS011;49809;47.418;19.080;2023-10-13T04:58:29;24.45;;;13.48;;
63653;SDS011;49809;47.418;19.080;2023-10-13T05:01:54;25.95;;;14.75;;
63653;SDS011;49809;47.418;19.080;2023-10-13T05:05:17;33.67;;;14.75;;
63653;SDS011;49809;47.418;19.080;2023-10-13T05:08:41;28.17;;;14.30;;
63653;SDS011;49809;47.418;19.080;2023-10-13T05:16:02;26.70;;;14.43;;
63653;SDS011;49809;47.418;19.080;2023-10-13T05:19:27;27.00;;;14.25;;
63653;SDS011;49809;47.418;19.080;2023-10-13T05:22:48;27.85;;;15.80;;
63653;SDS011;49809;47.418;19.080;2023-10-13T05:30:19;28.62;;;14.25;;
63653;SDS011;49809;47.418;19.080;2023-10-13T05:33:41;28.08;;;14.43;;
63653;SDS011;49809;47.418;19.080;2023-10-13T05:37:02;22.77;;;14.27;;
63653;SDS011;49809;47.418;19.080;2023-10-13T05:40:25;29.55;;;14.90;;
63653;SDS011;49809;47.418;19.080;2023-10-13T05:43:46;30.48;;;15.00;;
63653;SDS011;49809;47.418;19.080;2023-10-13T05:47:08;28.80;;;15.65;;
63653;SDS011;49809;47.418;19.080;2023-10-13T05:50:29;29.12;;;15.00;;
63653;SDS011;49809;47.418;19.080;2023-10-13T05:53:52;25.88;;;14.68;;
63653;SDS011;49809;47.418;19.080;2023-10-13T05:57:16;28.70;;;14.10;;
63653;SDS011;49809;47.418;19.080;2023-10-13T06:00:38;22.75;;;14.02;;
63653;SDS011;49809;47.418;19.080;2023-10-13T06:04:00;31.42;;;15.38;;
63653;SDS011;49809;47.418;19.080;2023-10-13T06:07:22;25.95;;;14.93;;
63653;SDS011;49809;47.418;19.080;2023-10-13T06:10:44;25.52;;;14.32;;
63653;SDS011;49809;47.418;19.080;2023-10-13T06:14:06;28.35;;;13.50;;
63653;SDS011;49809;47.418;19.080;2023-10-13T06:17:27;27.45;;;13.68;;
63653;SDS011;49809;47.418;19.080;2023-10-13T06:20:49;29.90;;;13.50;;
63653;SDS011;49809;47.418;19.080;2023-10-13T06:24:11;25.77;;;14.20;;
63653;SDS011;49809;47.418;19.080;2023-10-13T06:27:53;27.35;;;14.20;;
63653;SDS011;49809;47.418;19.080;2023-10-13T06:31:16;24.75;;;13.85;;
63653;SDS011;49809;47.418;19.080;2023-10-13T06:35:06;25.52;;;13.38;;
63653;SDS011;49809;47.418;19.080;2023-10-13T06:38:26;25.33;;;13.10;;
63653;SDS011;49809;47.418;19.080;2023-10-13T06:41:38;25.60;;;13.00;;
63653;SDS011;49809;47.418;19.080;2023-10-13T06:44:50;24.45;;;14.30;;
63653;SDS011;49809;47.418;19.080;2023-10-13T06:51:38;21.45;;;13.05;;
63653;SDS011;49809;47.418;19.080;2023-10-13T06:54:41;27.85;;;13.55;;
63653;SDS011;49809;47.418;19.080;2023-10-13T06:57:48;27.48;;;15.45;;
63653;SDS011;49809;47.418;19.080;2023-10-13T07:00:54;27.87;;;14.15;;
63653;SDS011;49809;47.418;19.080;2023-10-13T07:04:07;26.90;;;14.00;;
63653;SDS011;49809;47.418;19.080;2023-10-13T07:07:36;25.75;;;14.30;;
63653;SDS011;49809;47.418;19.080;2023-10-13T07:10:50;27.27;;;13.20;;
63653;SDS011;49809;47.418;19.080;2023-10-13T07:14:08;25.83;;;12.73;;
63653;SDS011;49809;47.418;19.080;2023-10-13T07:17:20;24.58;;;14.20;;
63653;SDS011;49809;47.418;19.080;2023-10-13T07:20:49;25.48;;;13.25;;
63653;SDS011;49809;47.418;19.080;2023-10-13T07:23:53;23.92;;;13.50;;
63653;SDS011;49809;47.418;19.080;2023-10-13T07:27:21;22.50;;;13.35;;
63653;SDS011;49809;47.418;19.080;2023-10-13T07:30:28;23.80;;;14.73;;
63653;SDS011;49809;47.418;19.080;2023-10-13T07:33:33;24.23;;;13.52;;
63653;SDS011;49809;47.418;19.080;2023-10-13T07:36:41;25.20;;;13.52;;
63653;SDS011;49809;47.418;19.080;2023-10-13T07:39:45;22.35;;;13.32;;
63653;SDS011;49809;47.418;19.080;2023-10-13T07:42:53;25.77;;;12.43;;
63653;SDS011;49809;47.418;19.080;2023-10-13T07:46:30;25.10;;;13.27;;
63653;SDS011;49809;47.418;19.080;2023-10-13T07:49:38;26.33;;;14.20;;
63653;SDS011;49809;47.418;19.080;2023-10-13T07:53:01;23.17;;;13.05;;
63653;SDS011;49809;47.418;19.080;2023-10-13T07:56:22;25.27;;;13.10;;
63653;SDS011;49809;47.418;19.080;2023-10-13T07:59:28;26.20;;;13.20;;
63653;SDS011;49809;47.418;19.080;2023-10-13T08:02:36;25.02;;;13.27;;
63653;SDS011;49809;47.418;19.080;2023-10-13T08:05:54;21.15;;;13.35;;
63653;SDS011;49809;47.418;19.080;2023-10-13T08:09:28;19.98;;;12.68;;
63653;SDS011;49809;47.418;19.080;2023-10-13T08:12:43;22.30;;;13.50;;
63653;SDS011;49809;47.418;19.080;2023-10-13T08:15:47;24.33;;;13.55;;
63653;SDS011;49809;47.418;19.080;2023-10-13T08:18:51;25.90;;;13.52;;
63653;SDS011;49809;47.418;19.080;2023-10-13T08:22:17;23.48;;;13.35;;
63653;SDS011;49809;47.418;19.080;2023-10-13T08:25:43;20.45;;;13.43;;
63653;SDS011;49809;47.418;19.080;2023-10-13T08:29:06;25.48;;;14.00;;
63653;SDS011;49809;47.418;19.080;2023-10-13T08:32:28;22.45;;;13.62;;
63653;SDS011;49809;47.418;19.080;2023-10-13T08:35:36;25.10;;;13.27;;
63653;SDS011;49809;47.418;19.080;2023-10-13T08:38:40;26.45;;;13.00;;
63653;SDS011;49809;47.418;19.080;2023-10-13T08:41:53;22.20;;;14.07;;
63653;SDS011;49809;47.418;19.080;2023-10-13T08:45:16;27.95;;;14.80;;
63653;SDS011;49809;47.418;19.080;2023-10-13T08:48:26;24.25;;;14.07;;
63653;SDS011;49809;47.418;19.080;2023-10-13T08:51:55;23.55;;;14.23;;
63653;SDS011;49809;47.418;19.080;2023-10-13T08:55:29;25.52;;;15.25;;
63653;SDS011;49809;47.418;19.080;2023-10-13T08:59:10;31.67;;;14.73;;
63653;SDS011;49809;47.418;19.080;2023-10-13T09:02:27;36.50;;;15.63;;
63653;SDS011;49809;47.418;19.080;2023-10-13T09:05:51;25.58;;;14.77;;
63653;SDS011;49809;47.418;19.080;2023-10-13T09:09:11;32.42;;;15.77;;
63653;SDS011;49809;47.418;19.080;2023-10-13T09:12:53;25.42;;;15.05;;
63653;SDS011;49809;47.418;19.080;2023-10-13T09:16:46;27.83;;;15.15;;
63653;SDS011;49809;47.418;19.080;2023-10-13T09:19:50;23.20;;;13.93;;
63653;SDS011;49809;47.418;19.080;2023-10-13T09:23:20;26.35;;;14.82;;
63653;SDS011;49809;47.418;19.080;2023-10-13T09:26:35;26.58;;;14.98;;
63653;SDS011;49809;47.418;19.080;2023-10-13T09:29:39;20.65;;;13.45;;
63653;SDS011;49809;47.418;19.080;2023-10-13T09:32:48;28.58;;;14.32;;
63653;SDS011;49809;47.418;19.080;2023-10-13T09:36:06;27.95;;;14.30;;
63653;SDS011;49809;47.418;19.080;2023-10-13T09:39:30;24.30;;;14.05;;
63653;SDS011;49809;47.418;19.080;2023-10-13T09:42:58;27.90;;;14.65;;
63653;SDS011;49809;47.418;19.080;2023-10-13T09:46:19;29.85;;;14.07;;
63653;SDS011;49809;47.418;19.080;2023-10-13T09:49:26;21.33;;;13.05;;
63653;SDS011;49809;47.418;19.080;2023-10-13T09:52:50;20.62;;;12.95;;
63653;SDS011;49809;47.418;19.080;2023-10-13T09:56:20;21.33;;;12.75;;
63653;SDS011;49809;47.418;19.080;2023-10-13T09:59:35;22.15;;;12.43;;
63653;SDS011;49809;47.418;19.080;2023-10-13T10:03:32;22.62;;;12.82;;
63653;SDS011;49809;47.418;19.080;2023-10-13T10:06:58;20.58;;;12.18;;
63653;SDS011;49809;47.418;19.080;2023-10-13T10:17:44;24.27;;;11.88;;
63653;SDS011;49809;47.418;19.080;2023-10-13T10:21:17;23.40;;;12.90;;
63653;SDS011;49809;47.418;19.080;2023-10-13T10:24:55;21.62;;;11.93;;
63653;SDS011;49809;47.418;19.080;2023-10-13T10:31:32;21.75;;;12.15;;
63653;SDS011;49809;47.418;19.080;2023-10-13T10:35:06;24.80;;;11.25;;
63653;SDS011;49809;47.418;19.080;2023-10-13T10:38:22;21.10;;;11.15;;
63653;SDS011;49809;47.418;19.080;2023-10-13T10:41:31;22.15;;;11.25;;
63653;SDS011;49809;47.418;19.080;2023-10-13T10:44:53;17.33;;;10.02;;
63653;SDS011;49809;47.418;19.080;2023-10-13T10:48:08;19.23;;;9.88;;
63653;SDS011;49809;47.418;19.080;2023-10-13T10:51:21;16.98;;;10.15;;
63653;SDS011;49809;47.418;19.080;2023-10-13T10:54:32;16.52;;;9.50;;
63653;SDS011;49809;47.418;19.080;2023-10-13T10:57:36;15.93;;;9.75;;
63653;SDS011;49809;47.418;19.080;2023-10-13T11:01:08;17.12;;;10.07;;
63653;SDS011;49809;47.418;19.080;2023-10-13T11:04:16;15.40;;;9.82;;
63653;SDS011;49809;47.418;19.080;2023-10-13T11:07:52;17.30;;;9.25;;
63653;SDS011;49809;47.418;19.080;2023-10-13T11:10:55;19.25;;;9.75;;
63653;SDS011;49809;47.418;19.080;2023-10-13T11:14:01;12.82;;;8.95;;
63653;SDS011;49809;47.418;19.080;2023-10-13T11:17:22;17.23;;;8.63;;
63653;SDS011;49809;47.418;19.080;2023-10-13T11:20:55;16.48;;;9.90;;
63653;SDS011;49809;47.418;19.080;2023-10-13T11:23:58;15.07;;;9.40;;
63653;SDS011;49809;47.418;19.080;2023-10-13T11:27:15;18.30;;;9.20;;
63653;SDS011;49809;47.418;19.080;2023-10-13T11:30:42;15.52;;;9.07;;
63653;SDS011;49809;47.418;19.080;2023-10-13T11:34:33;15.88;;;8.90;;
63653;SDS011;49809;47.418;19.080;2023-10-13T11:37:45;14.18;;;8.48;;
63653;SDS011;49809;47.418;19.080;2023-10-13T11:41:04;16.25;;;7.87;;
63653;SDS011;49809;47.418;19.080;2023-10-13T11:44:11;12.55;;;7.68;;
63653;SDS011;49809;47.418;19.080;2023-10-13T11:48:03;14.48;;;7.65;;
63653;SDS011;49809;47.418;19.080;2023-10-13T11:51:34;14.68;;;7.53;;
63653;SDS011;49809;47.418;19.080;2023-10-13T11:55:02;16.83;;;7.82;;
63653;SDS011;49809;47.418;19.080;2023-10-13T11:58:05;14.02;;;7.50;;
63653;SDS011;49809;47.418;19.080;2023-10-13T12:01:10;13.52;;;7.37;;
63653;SDS011;49809;47.418;19.080;2023-10-13T12:04:17;14.57;;;7.00;;
63653;SDS011;49809;47.418;19.080;2023-10-13T12:07:40;12.73;;;6.95;;
63653;SDS011;49809;47.418;19.080;2023-10-13T12:10:48;19.35;;;6.95;;
63653;SDS011;49809;47.418;19.080;2023-10-13T12:14:02;16.23;;;7.60;;
63653;SDS011;49809;47.418;19.080;2023-10-13T12:17:36;16.30;;;7.07;;
63653;SDS011;49809;47.418;19.080;2023-10-13T12:20:42;12.00;;;7.15;;
63653;SDS011;49809;47.418;19.080;2023-10-13T12:23:55;17.52;;;7.65;;
63653;SDS011;49809;47.418;19.080;2023-10-13T12:27:33;12.52;;;6.93;;
63653;SDS011;49809;47.418;19.080;2023-10-13T12:30:48;13.40;;;6.45;;
63653;SDS011;49809;47.418;19.080;2023-10-13T12:34:12;15.13;;;5.75;;
63653;SDS011;49809;47.418;19.080;2023-10-13T12:37:27;12.35;;;4.97;;
63653;SDS011;49809;47.418;19.080;2023-10-13T12:40:42;11.50;;;4.85;;
63653;SDS011;49809;47.418;19.080;2023-10-13T12:44:15;13.75;;;4.95;;
63653;SDS011;49809;47.418;19.080;2023-10-13T12:47:39;10.90;;;4.87;;
63653;SDS011;49809;47.418;19.080;2023-10-13T12:51:07;9.68;;;4.80;;
63653;SDS011;49809;47.418;19.080;2023-10-13T12:54:30;13.55;;;5.22;;
63653;SDS011;49809;47.418;19.080;2023-10-13T12:57:44;6.30;;;4.50;;
63653;SDS011;49809;47.418;19.080;2023-10-13T13:00:48;11.25;;;5.30;;
63653;SDS011;49809;47.418;19.080;2023-10-13T13:03:53;11.93;;;5.25;;
63653;SDS011;49809;47.418;19.080;2023-10-13T13:07:01;13.90;;;5.25;;
63653;SDS011;49809;47.418;19.080;2023-10-13T13:10:16;9.80;;;5.00;;
63653;SDS011;49809;47.418;19.080;2023-10-13T13:13:42;9.18;;;4.97;;
63653;SDS011;49809;47.418;19.080;2023-10-13T13:16:49;11.05;;;4.62;;
63653;SDS011;49809;47.418;19.080;2023-10-13T13:19:54;9.40;;;4.40;;
63653;SDS011;49809;47.418;19.080;2023-10-13T13:23:03;8.65;;;4.70;;
63653;SDS011;49809;47.418;19.080;2023-10-13T13:26:18;11.25;;;5.57;;
63653;SDS011;49809;47.418;19.080;2023-10-13T13:29:25;11.12;;;5.12;;
63653;SDS011;49809;47.418;19.080;2023-10-13T13:32:29;10.00;;;4.95;;
63653;SDS011;49809;47.418;19.080;2023-10-13T13:35:35;13.35;;;4.57;;
63653;SDS011;49809;47.418;19.080;2023-10-13T13:38:39;13.65;;;5.15;;
63653;SDS011;49809;47.418;19.080;2023-10-13T13:42:03;9.82;;;4.37;;
63653;SDS011;49809;47.418;19.080;2023-10-13T13:48:58;10.85;;;4.40;;
63653;SDS011;49809;47.418;19.080;2023-10-13T13:52:09;9.10;;;4.40;;
63653;SDS011;49809;47.418;19.080;2023-10-13T13:55:20;8.57;;;3.62;;
63653;SDS011;49809;47.418;19.080;2023-10-13T13:59:00;13.20;;;4.28;;
63653;SDS011;49809;47.418;19.080;2023-10-13T14:02:11;9.80;;;3.92;;
63653;SDS011;49809;47.418;19.080;2023-10-13T14:05:24;7.87;;;3.50;;
63653;SDS011;49809;47.418;19.080;2023-10-13T14:08:38;10.63;;;3.67;;
63653;SDS011;49809;47.418;19.080;2023-10-13T14:11:45;7.43;;;3.15;;
63653;SDS011;49809;47.418;19.080;2023-10-13T14:15:10;10.75;;;3.50;;
63653;SDS011;49809;47.418;19.080;2023-10-13T14:18:24;8.57;;;3.80;;
63653;SDS011;49809;47.418;19.080;2023-10-13T14:21:57;11.05;;;3.28;;
63653;SDS011;49809;47.418;19.080;2023-10-13T14:25:10;8.93;;;3.35;;
63653;SDS011;49809;47.418;19.080;2023-10-13T14:28:17;8.88;;;3.42;;
63653;SDS011;49809;47.418;19.080;2023-10-13T14:31:22;9.13;;;3.10;;
63653;SDS011;49809;47.418;19.080;2023-10-13T14:34:30;7.57;;;3.30;;
63653;SDS011;49809;47.418;19.080;2023-10-13T14:37:58;9.73;;;3.05;;
63653;SDS011;49809;47.418;19.080;2023-10-13T14:41:08;11.48;;;3.90;;
63653;SDS011;49809;47.418;19.080;2023-10-13T14:44:33;6.82;;;3.20;;
63653;SDS011;49809;47.418;19.080;2023-10-13T14:47:44;14.75;;;4.03;;
63653;SDS011;49809;47.418;19.080;2023-10-13T14:50:49;14.25;;;4.97;;
63653;SDS011;49809;47.418;19.080;2023-10-13T14:53:53;7.12;;;3.47;;
63653;SDS011;49809;47.418;19.080;2023-10-13T14:57:00;12.95;;;3.80;;
63653;SDS011;49809;47.418;19.080;2023-10-13T15:00:31;8.10;;;3.42;;
63653;SDS011;49809;47.418;19.080;2023-10-13T15:03:47;10.02;;;4.22;;
63653;SDS011;49809;47.418;19.080;2023-10-13T15:06:51;21.63;;;5.57;;
63653;SDS011;49809;47.418;19.080;2023-10-13T15:09:57;10.43;;;4.70;;
63653;SDS011;49809;47.418;19.080;2023-10-13T15:13:00;13.70;;;4.40;;
63653;SDS011;49809;47.418;19.080;2023-10-13T15:19:22;7.37;;;3.83;;
63653;SDS011;49809;47.418;19.080;2023-10-13T15:23:06;9.90;;;4.15;;
63653;SDS011;49809;47.418;19.080;2023-10-13T15:26:09;15.65;;;6.62;;
63653;SDS011;49809;47.418;19.080;2023-10-13T15:29:18;15.27;;;6.35;;
63653;SDS011;49809;47.418;19.080;2023-10-13T15:32:34;15.30;;;6.47;;
63653;SDS011;49809;47.418;19.080;2023-10-13T15:36:15;15.82;;;7.03;;
63653;SDS011;49809;47.418;19.080;2023-10-13T15:39:18;13.25;;;6.20;;
63653;SDS011;49809;47.418;19.080;2023-10-13T15:42:26;13.05;;;6.18;;
63653;SDS011;49809;47.418;19.080;2023-10-13T15:45:31;12.65;;;5.60;;
63653;SDS011;49809;47.418;19.080;2023-10-13T15:48:42;13.82;;;5.62;;
63653;SDS011;49809;47.418;19.080;2023-10-13T15:52:08;13.23;;;5.87;;
63653;SDS011;49809;47.418;19.080;2023-10-13T15:55:16;17.55;;;6.47;;
63653;SDS011;49809;47.418;19.080;2023-10-13T15:58:22;12.18;;;6.22;;
63653;SDS011;49809;47.418;19.080;2023-10-13T16:04:32;12.80;;;5.37;;
63653;SDS011;49809;47.418;19.080;2023-10-13T16:07:36;12.20;;;5.68;;
63653;SDS011;49809;47.418;19.080;2023-10-13T16:10:43;13.02;;;5.37;;
63653;SDS011;49809;47.418;19.080;2023-10-13T16:14:09;15.98;;;6.93;;
63653;SDS011;49809;47.418;19.080;2023-10-13T16:17:13;13.10;;;7.25;;
63653;SDS011;49809;47.418;19.080;2023-10-13T16:20:22;15.95;;;6.40;;
63653;SDS011;49809;47.418;19.080;2023-10-13T16:23:38;13.40;;;6.20;;
63653;SDS011;49809;47.418;19.080;2023-10-13T16:26:48;14.73;;;6.62;;
63653;SDS011;49809;47.418;19.080;2023-10-13T16:29:53;16.55;;;6.28;;
63653;SDS011;49809;47.418;19.080;2023-10-13T16:32:57;15.43;;;6.60;;
63653;SDS011;49809;47.418;19.080;2023-10-13T16:36:03;16.62;;;8.20;;
63653;SDS011;49809;47.418;19.080;2023-10-13T16:39:16;22.98;;;9.23;;
63653;SDS011;49809;47.418;19.080;2023-10-13T16:42:27;26.27;;;9.40;;
63653;SDS011;49809;47.418;19.080;2023-10-13T16:45:36;18.57;;;8.70;;
63653;SDS011;49809;47.418;19.080;2023-10-13T16:49:07;18.48;;;8.57;;
63653;SDS011;49809;47.418;19.080;2023-10-13T16:52:11;29.55;;;9.30;;
63653;SDS011;49809;47.418;19.080;2023-10-13T16:55:17;19.85;;;9.20;;
63653;SDS011;49809;47.418;19.080;2023-10-13T16:58:24;16.90;;;8.27;;
63653;SDS011;49809;47.418;19.080;2023-10-13T17:01:50;18.25;;;8.52;;
63653;SDS011;49809;47.418;19.080;2023-10-13T17:05:28;26.00;;;10.05;;
63653;SDS011;49809;47.418;19.080;2023-10-13T17:08:34;23.02;;;10.05;;
63653;SDS011;49809;47.418;19.080;2023-10-13T17:11:39;22.00;;;10.00;;
63653;SDS011;49809;47.418;19.080;2023-10-13T17:14:46;23.57;;;9.97;;
63653;SDS011;49809;47.418;19.080;2023-10-13T17:17:50;23.73;;;10.45;;
63653;SDS011;49809;47.418;19.080;2023-10-13T17:20:57;22.05;;;10.15;;
63653;SDS011;49809;47.418;19.080;2023-10-13T17:24:20;26.25;;;10.85;;
63653;SDS011;49809;47.418;19.080;2023-10-13T17:28:04;27.52;;;11.38;;
63653;SDS011;49809;47.418;19.080;2023-10-13T17:31:21;20.80;;;10.30;;
63653;SDS011;49809;47.418;19.080;2023-10-13T17:34:26;22.35;;;11.30;;
63653;SDS011;49809;47.418;19.080;2023-10-13T17:37:35;26.55;;;10.50;;
63653;SDS011;49809;47.418;19.080;2023-10-13T17:40:42;23.35;;;10.45;;
63653;SDS011;49809;47.418;19.080;2023-10-13T17:43:45;30.92;;;10.60;;
63653;SDS011;49809;47.418;19.080;2023-10-13T17:46:54;26.85;;;10.73;;
63653;SDS011;49809;47.418;19.080;2023-10-13T17:50:17;31.33;;;10.80;;
63653;SDS011;49809;47.418;19.080;2023-10-13T17:53:23;25.45;;;10.57;;
63653;SDS011;49809;47.418;19.080;2023-10-13T17:56:27;23.67;;;10.60;;
63653;SDS011;49809;47.418;19.080;2023-10-13T17:59:36;23.95;;;10.27;;
63653;SDS011;49809;47.418;19.080;2023-10-13T18:02:44;27.15;;;10.50;;
63653;SDS011;49809;47.418;19.080;2023-10-13T18:05:48;26.33;;;10.93;;
63653;SDS011;49809;47.418;19.080;2023-10-13T18:08:59;23.73;;;10.68;;
63653;SDS011;49809;47.418;19.080;2023-10-13T18:12:02;26.48;;;10.82;;
63653;SDS011;49809;47.418;19.080;2023-10-13T18:15:07;22.67;;;10.18;;
63653;SDS011;49809;47.418;19.080;2023-10-13T18:18:21;25.15;;;9.70;;
63653;SDS011;49809;47.418;19.080;2023-10-13T18:21:27;23.58;;;9.70;;
63653;SDS011;49809;47.418;19.080;2023-10-13T18:24:31;22.00;;;9.13;;
63653;SDS011;49809;47.418;19.080;2023-10-13T18:27:34;26.30;;;9.40;;
63653;SDS011;49809;47.418;19.080;2023-10-13T18:30:37;21.58;;;8.98;;
63653;SDS011;49809;47.418;19.080;2023-10-13T18:33:40;24.80;;;9.45;;
63653;SDS011;49809;47.418;19.080;2023-10-13T18:36:44;22.67;;;9.07;;
63653;SDS011;49809;47.418;19.080;2023-10-13T18:39:49;21.27;;;8.93;;
63653;SDS011;49809;47.418;19.080;2023-10-13T18:42:52;17.90;;;8.85;;
63653;SDS011;49809;47.418;19.080;2023-10-13T18:46:01;22.25;;;8.93;;
63653;SDS011;49809;47.418;19.080;2023-10-13T18:49:16;21.75;;;8.93;;
63653;SDS011;49809;47.418;19.080;2023-10-13T18:52:22;20.30;;;8.55;;
63653;SDS011;49809;47.418;19.080;2023-10-13T18:55:29;22.13;;;8.95;;
63653;SDS011;49809;47.418;19.080;2023-10-13T18:58:57;24.08;;;8.57;;
63653;SDS011;49809;47.418;19.080;2023-10-13T19:02:06;24.55;;;10.30;;
63653;SDS011;49809;47.418;19.080;2023-10-13T19:05:09;20.55;;;10.38;;
63653;SDS011;49809;47.418;19.080;2023-10-13T19:08:12;21.92;;;10.45;;
63653;SDS011;49809;47.418;19.080;2023-10-13T19:11:16;23.87;;;11.30;;
63653;SDS011;49809;47.418;19.080;2023-10-13T19:14:23;22.37;;;10.30;;
63653;SDS011;49809;47.418;19.080;2023-10-13T19:17:26;26.40;;;11.63;;
63653;SDS011;49809;47.418;19.080;2023-10-13T19:20:31;23.15;;;10.95;;
63653;SDS011;49809;47.418;19.080;2023-10-13T19:23:46;29.52;;;10.50;;
63653;SDS011;49809;47.418;19.080;2023-10-13T19:30:17;24.92;;;10.90;;
63653;SDS011;49809;47.418;19.080;2023-10-13T19:33:25;30.77;;;10.98;;
63653;SDS011;49809;47.418;19.080;2023-10-13T19:36:48;24.33;;;10.88;;